地図

経路データ

SID SEASON NUMBER BASIN SUBBASIN NAME ISO_TIME NATURE LAT LON WMO_WIND WMO_PRES WMO_AGENCY TRACK_TYPE DIST2LAND LANDFALL IFLAG USA_AGENCY USA_ATCF_ID USA_LAT USA_LON USA_RECORD USA_STATUS USA_WIND USA_PRES USA_SSHS USA_R34_NE USA_R34_SE USA_R34_SW USA_R34_NW USA_R50_NE USA_R50_SE USA_R50_SW USA_R50_NW USA_R64_NE USA_R64_SE USA_R64_SW USA_R64_NW USA_POCI USA_ROCI USA_RMW USA_EYE TOKYO_LAT TOKYO_LON TOKYO_GRADE TOKYO_WIND TOKYO_PRES TOKYO_R50_DIR TOKYO_R50_LONG TOKYO_R50_SHORT TOKYO_R30_DIR TOKYO_R30_LONG TOKYO_R30_SHORT TOKYO_LAND CMA_LAT CMA_LON CMA_CAT CMA_WIND CMA_PRES HKO_LAT HKO_LON HKO_CAT HKO_WIND HKO_PRES NEWDELHI_LAT NEWDELHI_LON NEWDELHI_GRADE NEWDELHI_WIND NEWDELHI_PRES NEWDELHI_CI NEWDELHI_DP NEWDELHI_POCI REUNION_LAT REUNION_LON REUNION_TYPE REUNION_WIND REUNION_PRES REUNION_TNUM REUNION_CI REUNION_RMW REUNION_R34_NE REUNION_R34_SE REUNION_R34_SW REUNION_R34_NW REUNION_R50_NE REUNION_R50_SE REUNION_R50_SW REUNION_R50_NW REUNION_R64_NE REUNION_R64_SE REUNION_R64_SW REUNION_R64_NW BOM_LAT BOM_LON BOM_TYPE BOM_WIND BOM_PRES BOM_TNUM BOM_CI BOM_RMW BOM_R34_NE BOM_R34_SE BOM_R34_SW BOM_R34_NW BOM_R50_NE BOM_R50_SE BOM_R50_SW BOM_R50_NW BOM_R64_NE BOM_R64_SE BOM_R64_SW BOM_R64_NW BOM_ROCI BOM_POCI BOM_EYE BOM_POS_METHOD BOM_PRES_METHOD NADI_LAT NADI_LON NADI_CAT NADI_WIND NADI_PRES WELLINGTON_LAT WELLINGTON_LON WELLINGTON_WIND WELLINGTON_PRES DS824_LAT DS824_LON DS824_STAGE DS824_WIND DS824_PRES TD9636_LAT TD9636_LON TD9636_STAGE TD9636_WIND TD9636_PRES TD9635_LAT TD9635_LON TD9635_WIND TD9635_PRES TD9635_ROCI NEUMANN_LAT NEUMANN_LON NEUMANN_CLASS NEUMANN_WIND NEUMANN_PRES MLC_LAT MLC_LON MLC_CLASS MLC_WIND MLC_PRES USA_GUST BOM_GUST BOM_GUST_PER REUNION_GUST REUNION_GUST_PER USA_SEAHGT USA_SEARAD_NE USA_SEARAD_SE USA_SEARAD_SW USA_SEARAD_NW STORM_SPEED STORM_DIR
1890169N19086 1890 15 NI BB NOT_NAMED 1890-06-18 00:00:00 TS 19.3000 86.4000 main 74 59 _________O____ -1 19.3000 86.4000 TC 30 2 305
1890169N19086 1890 15 NI BB NOT_NAMED 1890-06-18 03:00:00 TS 19.3600 86.3067 main 59 45 _________PO___ -1 19.3900 86.2600 TC 30 19.3000 86.4000 1 3 306
1890169N19086 1890 15 NI BB NOT_NAMED 1890-06-18 06:00:00 TS 19.4726 86.1489 main 44 30 _________OP___ -1 19.5000 86.1000 TC 30 19.4314 86.2222 1 4 308
1890169N19086 1890 15 NI BB NOT_NAMED 1890-06-18 09:00:00 TS 19.6072 85.9666 main 30 11 _________PP___ -1 19.6425 85.9075 TC 30 19.5602 86.0454 1 4 308
1890169N19086 1890 15 NI BB NOT_NAMED 1890-06-18 12:00:00 TS 19.7419 85.7854 main 11 0 _________OP___ -1 19.8000 85.7000 TC 30 19.6839 85.8709 1 4 308
1890169N19086 1890 15 NI BB NOT_NAMED 1890-06-18 15:00:00 TS 19.8787 85.5963 main 0 0 _________PO___ -1 19.9575 85.4925 TC 30 19.8000 85.7000 1 4 307
1890169N19086 1890 15 NI BB NOT_NAMED 1890-06-18 18:00:00 TS 20.0043 85.4164 main 0 0 _________OP___ -1 20.1000 85.3000 TC 30 19.9086 85.5328 1 4 306
1890169N19086 1890 15 NI BB NOT_NAMED 1890-06-18 21:00:00 TS 20.1099 85.2535 main 0 0 _________PP___ -1 20.2000 85.1424 TC 30 20.0198 85.3646 1 4 306
1890169N19086 1890 15 NI BB NOT_NAMED 1890-06-19 00:00:00 TS 20.2231 85.0945 main 0 0 _________OP___ -1 20.3000 85.0000 TC 30 20.1461 85.1890 1 4 310
1890169N19086 1890 15 NI BB NOT_NAMED 1890-06-19 03:00:00 TS 20.3600 84.9362 main 0 0 _________PO___ -1 20.4199 84.8723 TC 30 20.3000 85.0000 1 5 315
1890169N19086 1890 15 NI BB NOT_NAMED 1890-06-19 06:00:00 TS 20.5481 84.7447 main 0 0 _________OP___ -1 20.6000 84.7000 TC 30 20.4963 84.7894 1 6 317
1890169N19086 1890 15 NI BB NOT_NAMED 1890-06-19 09:00:00 TS 20.8063 84.4901 main 0 0 _________PP___ -1 20.8926 84.4152 TC 30 20.7200 84.5651 1 7 317
1890169N19086 1890 15 NI BB NOT_NAMED 1890-06-19 12:00:00 TS 21.0794 84.2166 main 0 0 _________OP___ -1 21.2000 84.1000 TC 30 20.9587 84.3331 1 7 316
1890169N19086 1890 15 NI BB NOT_NAMED 1890-06-19 15:00:00 TS 21.3037 83.9674 main 0 0 _________PO___ -1 21.4075 83.8348 TC 30 21.2000 84.1000 1 6 314
1890169N19086 1890 15 NI BB NOT_NAMED 1890-06-19 18:00:00 TS 21.4980 83.7552 main 0 0 _________OP___ -1 21.6000 83.6000 TC 30 21.3960 83.9104 1 5 318
1890169N19086 1890 15 NI BB NOT_NAMED 1890-06-19 21:00:00 TS 21.7082 83.5726 main 0 0 _________PP___ -1 21.8198 83.4295 TC 30 21.5967 83.7156 1 6 320
1890169N19086 1890 15 NI BB NOT_NAMED 1890-06-20 00:00:00 TS 21.9620 83.3441 main 0 0 _________OP___ -1 22.1000 83.2000 TC 30 21.8240 83.4881 1 8 317
1890169N19086 1890 15 NI BB NOT_NAMED 1890-06-20 03:00:00 TS 22.2888 82.9938 main 0 0 _________PO___ -1 22.4776 82.7877 TC 30 22.1000 83.2000 1 10 315
1890169N19086 1890 15 NI BB NOT_NAMED 1890-06-20 06:00:00 TS 22.6749 82.5616 main 0 0 _________OP___ -1 22.9000 82.3000 TC 30 22.4499 82.8232 1 11 314
1890169N19086 1890 15 NI BB NOT_NAMED 1890-06-20 09:00:00 TS 23.0738 82.1200 main 0 0 _________PP___ -1 23.2998 81.8572 TC 30 22.8477 82.3828 1 12 314
1890169N19086 1890 15 NI BB NOT_NAMED 1890-06-20 12:00:00 TS 23.4858 81.6505 main 0 0 _________OP___ -1 23.7000 81.4000 TC 30 23.2716 81.9010 1 12 313
1890169N19086 1890 15 NI BB NOT_NAMED 1890-06-20 15:00:00 TS 23.9000 81.1536 main 0 0 _________PO___ -1 24.0999 80.9073 TC 30 23.7000 81.4000 1 12 312
1890169N19086 1890 15 NI BB NOT_NAMED 1890-06-20 18:00:00 TS 24.2804 80.6849 main 0 0 _________OP___ -1 24.5000 80.4000 TC 30 24.1157 80.8986 1 12 312
1890169N19086 1890 15 NI BB NOT_NAMED 1890-06-20 21:00:00 TS 24.6711 80.1988 main 0 0 _________PP___ -1 24.9003 79.8981 TC 30 24.5184 80.3993 1 12 311
1890169N19086 1890 15 NI BB NOT_NAMED 1890-06-21 00:00:00 TS 25.0413 79.7336 main 0 0 _________OP___ -1 25.3000 79.4000 TC 30 24.9119 79.9004 1 10 311
1890169N19086 1890 15 NI BB NOT_NAMED 1890-06-21 03:00:00 NR 25.3000 79.4000 main 0 __________O___ -1 TC 25.3000 79.4000 1 8 311

IBTrACS Databaseについて

本データベースは、米国NOAAが公開する1842年以降の世界の熱帯低気圧のベストトラックデータアーカイブInternational Best Track Archive for Climate Stewardship (IBTrACS)を、ウェブで閲覧しやすい形式に変換したものです。

最終更新日:2021-10-08